sensor_id;sensor_type;location;lat;lon;timestamp;P1;durP1;ratioP1;P2;durP2;ratioP2
83121;SDS011;73002;47.238;9.006;2024-03-22T00:01:46;5.32;;;3.50;;
83121;SDS011;73002;47.238;9.006;2024-03-22T00:04:12;5.28;;;3.30;;
83121;SDS011;73002;47.238;9.006;2024-03-22T00:06:38;4.50;;;3.40;;
83121;SDS011;73002;47.238;9.006;2024-03-22T00:09:04;6.53;;;3.40;;
83121;SDS011;73002;47.238;9.006;2024-03-22T00:11:30;4.38;;;3.40;;
83121;SDS011;73002;47.238;9.006;2024-03-22T00:13:55;4.47;;;3.25;;
83121;SDS011;73002;47.238;9.006;2024-03-22T00:16:21;4.45;;;3.50;;
83121;SDS011;73002;47.238;9.006;2024-03-22T00:18:46;4.78;;;3.35;;
83121;SDS011;73002;47.238;9.006;2024-03-22T00:21:14;3.85;;;3.38;;
83121;SDS011;73002;47.238;9.006;2024-03-22T00:23:39;5.65;;;3.20;;
83121;SDS011;73002;47.238;9.006;2024-03-22T00:26:08;4.80;;;3.40;;
83121;SDS011;73002;47.238;9.006;2024-03-22T00:28:33;4.90;;;3.17;;
83121;SDS011;73002;47.238;9.006;2024-03-22T00:30:58;5.28;;;3.25;;
83121;SDS011;73002;47.238;9.006;2024-03-22T00:33:24;4.10;;;3.05;;
83121;SDS011;73002;47.238;9.006;2024-03-22T00:35:52;4.53;;;2.97;;
83121;SDS011;73002;47.238;9.006;2024-03-22T00:38:19;6.25;;;3.50;;
83121;SDS011;73002;47.238;9.006;2024-03-22T00:40:45;4.18;;;2.97;;
83121;SDS011;73002;47.238;9.006;2024-03-22T00:43:10;4.63;;;2.92;;
83121;SDS011;73002;47.238;9.006;2024-03-22T00:45:36;4.88;;;3.20;;
83121;SDS011;73002;47.238;9.006;2024-03-22T00:48:01;5.38;;;3.22;;
83121;SDS011;73002;47.238;9.006;2024-03-22T00:50:27;4.03;;;3.20;;
83121;SDS011;73002;47.238;9.006;2024-03-22T00:52:54;4.03;;;2.92;;
83121;SDS011;73002;47.238;9.006;2024-03-22T00:55:23;5.80;;;3.20;;
83121;SDS011;73002;47.238;9.006;2024-03-22T00:57:48;6.47;;;3.53;;
83121;SDS011;73002;47.238;9.006;2024-03-22T01:00:14;5.78;;;3.60;;
83121;SDS011;73002;47.238;9.006;2024-03-22T01:02:41;4.97;;;3.13;;
83121;SDS011;73002;47.238;9.006;2024-03-22T01:05:07;4.50;;;3.20;;
83121;SDS011;73002;47.238;9.006;2024-03-22T01:07:32;4.95;;;3.33;;
83121;SDS011;73002;47.238;9.006;2024-03-22T01:09:58;4.07;;;3.47;;
83121;SDS011;73002;47.238;9.006;2024-03-22T01:12:23;7.00;;;3.60;;
83121;SDS011;73002;47.238;9.006;2024-03-22T01:14:49;6.55;;;3.53;;
83121;SDS011;73002;47.238;9.006;2024-03-22T01:17:14;4.85;;;3.10;;
83121;SDS011;73002;47.238;9.006;2024-03-22T01:19:39;4.53;;;3.45;;
83121;SDS011;73002;47.238;9.006;2024-03-22T01:22:06;5.20;;;3.55;;
83121;SDS011;73002;47.238;9.006;2024-03-22T01:24:32;4.55;;;3.50;;
83121;SDS011;73002;47.238;9.006;2024-03-22T01:26:57;6.18;;;3.22;;
83121;SDS011;73002;47.238;9.006;2024-03-22T01:29:22;4.18;;;3.58;;
83121;SDS011;73002;47.238;9.006;2024-03-22T01:31:48;5.68;;;3.88;;
83121;SDS011;73002;47.238;9.006;2024-03-22T01:34:14;5.07;;;3.60;;
83121;SDS011;73002;47.238;9.006;2024-03-22T01:36:39;4.03;;;3.45;;
83121;SDS011;73002;47.238;9.006;2024-03-22T01:39:05;5.32;;;3.58;;
83121;SDS011;73002;47.238;9.006;2024-03-22T01:41:30;5.00;;;3.67;;
83121;SDS011;73002;47.238;9.006;2024-03-22T01:43:57;4.68;;;3.45;;
83121;SDS011;73002;47.238;9.006;2024-03-22T01:46:23;5.07;;;3.25;;
83121;SDS011;73002;47.238;9.006;2024-03-22T01:48:48;4.35;;;3.47;;
83121;SDS011;73002;47.238;9.006;2024-03-22T01:51:14;6.82;;;3.78;;
83121;SDS011;73002;47.238;9.006;2024-03-22T01:53:40;7.28;;;3.58;;
83121;SDS011;73002;47.238;9.006;2024-03-22T01:56:09;4.97;;;3.50;;
83121;SDS011;73002;47.238;9.006;2024-03-22T01:58:36;5.07;;;3.30;;
83121;SDS011;73002;47.238;9.006;2024-03-22T02:01:01;5.68;;;3.30;;
83121;SDS011;73002;47.238;9.006;2024-03-22T02:03:27;4.55;;;3.40;;
83121;SDS011;73002;47.238;9.006;2024-03-22T02:05:52;6.00;;;3.42;;
83121;SDS011;73002;47.238;9.006;2024-03-22T02:08:18;4.80;;;3.45;;
83121;SDS011;73002;47.238;9.006;2024-03-22T02:10:46;4.63;;;3.20;;
83121;SDS011;73002;47.238;9.006;2024-03-22T02:13:12;5.03;;;3.50;;
83121;SDS011;73002;47.238;9.006;2024-03-22T02:15:37;5.93;;;3.70;;
83121;SDS011;73002;47.238;9.006;2024-03-22T02:18:03;5.72;;;3.13;;
83121;SDS011;73002;47.238;9.006;2024-03-22T02:20:28;4.57;;;3.30;;
83121;SDS011;73002;47.238;9.006;2024-03-22T02:22:54;4.30;;;3.55;;
83121;SDS011;73002;47.238;9.006;2024-03-22T02:25:19;8.02;;;3.70;;
83121;SDS011;73002;47.238;9.006;2024-03-22T02:27:46;5.50;;;3.47;;
83121;SDS011;73002;47.238;9.006;2024-03-22T02:30:15;6.45;;;3.40;;
83121;SDS011;73002;47.238;9.006;2024-03-22T02:32:41;4.82;;;3.40;;
83121;SDS011;73002;47.238;9.006;2024-03-22T02:35:07;4.30;;;3.55;;
83121;SDS011;73002;47.238;9.006;2024-03-22T02:37:32;5.22;;;3.53;;
83121;SDS011;73002;47.238;9.006;2024-03-22T02:39:58;4.72;;;3.58;;
83121;SDS011;73002;47.238;9.006;2024-03-22T02:42:23;4.88;;;3.78;;
83121;SDS011;73002;47.238;9.006;2024-03-22T02:44:49;5.28;;;3.63;;
83121;SDS011;73002;47.238;9.006;2024-03-22T02:47:14;4.68;;;3.38;;
83121;SDS011;73002;47.238;9.006;2024-03-22T02:49:40;4.20;;;3.40;;
83121;SDS011;73002;47.238;9.006;2024-03-22T02:52:06;4.28;;;3.30;;
83121;SDS011;73002;47.238;9.006;2024-03-22T02:54:33;4.65;;;3.05;;
83121;SDS011;73002;47.238;9.006;2024-03-22T02:57:01;4.30;;;3.23;;
83121;SDS011;73002;47.238;9.006;2024-03-22T02:59:27;5.53;;;3.28;;
83121;SDS011;73002;47.238;9.006;2024-03-22T03:01:53;5.18;;;3.70;;
83121;SDS011;73002;47.238;9.006;2024-03-22T03:04:18;4.45;;;3.20;;
83121;SDS011;73002;47.238;9.006;2024-03-22T03:06:44;6.65;;;3.42;;
83121;SDS011;73002;47.238;9.006;2024-03-22T03:09:10;5.05;;;3.22;;
83121;SDS011;73002;47.238;9.006;2024-03-22T03:11:37;4.13;;;2.90;;
83121;SDS011;73002;47.238;9.006;2024-03-22T03:14:04;4.47;;;3.22;;
83121;SDS011;73002;47.238;9.006;2024-03-22T03:16:29;4.57;;;3.20;;
83121;SDS011;73002;47.238;9.006;2024-03-22T03:18:55;5.38;;;3.17;;
83121;SDS011;73002;47.238;9.006;2024-03-22T03:21:21;3.55;;;3.25;;
83121;SDS011;73002;47.238;9.006;2024-03-22T03:23:47;4.18;;;3.22;;
83121;SDS011;73002;47.238;9.006;2024-03-22T03:26:12;4.18;;;3.30;;
83121;SDS011;73002;47.238;9.006;2024-03-22T03:28:38;4.65;;;3.30;;
83121;SDS011;73002;47.238;9.006;2024-03-22T03:31:03;5.65;;;3.22;;
83121;SDS011;73002;47.238;9.006;2024-03-22T03:33:29;3.90;;;2.92;;
83121;SDS011;73002;47.238;9.006;2024-03-22T03:35:55;6.43;;;3.70;;
83121;SDS011;73002;47.238;9.006;2024-03-22T03:38:20;5.03;;;3.60;;
83121;SDS011;73002;47.238;9.006;2024-03-22T03:40:48;5.57;;;4.00;;
83121;SDS011;73002;47.238;9.006;2024-03-22T03:43:14;4.18;;;3.35;;
83121;SDS011;73002;47.238;9.006;2024-03-22T03:45:39;4.55;;;3.75;;
83121;SDS011;73002;47.238;9.006;2024-03-22T03:48:05;4.72;;;3.75;;
83121;SDS011;73002;47.238;9.006;2024-03-22T03:50:30;6.30;;;3.85;;
83121;SDS011;73002;47.238;9.006;2024-03-22T03:52:56;4.43;;;4.00;;
83121;SDS011;73002;47.238;9.006;2024-03-22T03:55:24;6.25;;;3.80;;
83121;SDS011;73002;47.238;9.006;2024-03-22T03:57:50;3.88;;;3.45;;
83121;SDS011;73002;47.238;9.006;2024-03-22T04:00:15;5.10;;;3.70;;
83121;SDS011;73002;47.238;9.006;2024-03-22T04:02:42;4.00;;;3.33;;
83121;SDS011;73002;47.238;9.006;2024-03-22T04:05:08;4.43;;;3.15;;
83121;SDS011;73002;47.238;9.006;2024-03-22T04:07:36;5.05;;;2.90;;
83121;SDS011;73002;47.238;9.006;2024-03-22T04:10:01;4.53;;;3.47;;
83121;SDS011;73002;47.238;9.006;2024-03-22T04:12:29;5.85;;;3.30;;
83121;SDS011;73002;47.238;9.006;2024-03-22T04:14:54;5.05;;;3.30;;
83121;SDS011;73002;47.238;9.006;2024-03-22T04:17:19;4.97;;;3.20;;
83121;SDS011;73002;47.238;9.006;2024-03-22T04:19:45;4.57;;;3.35;;
83121;SDS011;73002;47.238;9.006;2024-03-22T04:22:10;4.65;;;3.20;;
83121;SDS011;73002;47.238;9.006;2024-03-22T04:24:36;5.05;;;3.55;;
83121;SDS011;73002;47.238;9.006;2024-03-22T04:27:01;4.22;;;3.25;;
83121;SDS011;73002;47.238;9.006;2024-03-22T04:29:27;6.72;;;3.42;;
83121;SDS011;73002;47.238;9.006;2024-03-22T04:31:52;4.30;;;3.30;;
83121;SDS011;73002;47.238;9.006;2024-03-22T04:34:18;4.45;;;3.85;;
83121;SDS011;73002;47.238;9.006;2024-03-22T04:36:45;5.80;;;3.28;;
83121;SDS011;73002;47.238;9.006;2024-03-22T04:39:10;5.50;;;3.33;;
83121;SDS011;73002;47.238;9.006;2024-03-22T04:41:37;5.35;;;3.15;;
83121;SDS011;73002;47.238;9.006;2024-03-22T04:44:02;4.30;;;3.50;;
83121;SDS011;73002;47.238;9.006;2024-03-22T04:46:28;4.20;;;3.25;;
83121;SDS011;73002;47.238;9.006;2024-03-22T04:48:53;3.28;;;2.97;;
83121;SDS011;73002;47.238;9.006;2024-03-22T04:51:19;8.18;;;3.25;;
83121;SDS011;73002;47.238;9.006;2024-03-22T04:53:44;7.75;;;3.50;;
83121;SDS011;73002;47.238;9.006;2024-03-22T04:56:09;3.30;;;3.00;;
83121;SDS011;73002;47.238;9.006;2024-03-22T04:58:35;3.80;;;3.10;;
83121;SDS011;73002;47.238;9.006;2024-03-22T05:01:00;4.05;;;3.00;;
83121;SDS011;73002;47.238;9.006;2024-03-22T05:03:26;5.53;;;2.85;;
83121;SDS011;73002;47.238;9.006;2024-03-22T05:05:51;3.80;;;2.95;;
83121;SDS011;73002;47.238;9.006;2024-03-22T05:08:16;5.82;;;3.30;;
83121;SDS011;73002;47.238;9.006;2024-03-22T05:10:42;3.75;;;2.80;;
83121;SDS011;73002;47.238;9.006;2024-03-22T05:13:08;3.90;;;2.85;;
83121;SDS011;73002;47.238;9.006;2024-03-22T05:15:33;5.72;;;2.90;;
83121;SDS011;73002;47.238;9.006;2024-03-22T05:17:58;3.58;;;2.53;;
83121;SDS011;73002;47.238;9.006;2024-03-22T05:20:25;5.88;;;2.78;;
83121;SDS011;73002;47.238;9.006;2024-03-22T05:22:51;6.15;;;3.00;;
83121;SDS011;73002;47.238;9.006;2024-03-22T05:25:16;5.03;;;2.50;;
83121;SDS011;73002;47.238;9.006;2024-03-22T05:27:42;4.55;;;2.75;;
83121;SDS011;73002;47.238;9.006;2024-03-22T05:30:10;3.78;;;3.42;;
83121;SDS011;73002;47.238;9.006;2024-03-22T05:32:36;3.97;;;3.05;;
83121;SDS011;73002;47.238;9.006;2024-03-22T05:35:01;4.18;;;2.83;;
83121;SDS011;73002;47.238;9.006;2024-03-22T05:37:27;3.08;;;2.58;;
83121;SDS011;73002;47.238;9.006;2024-03-22T05:39:52;3.95;;;2.97;;
83121;SDS011;73002;47.238;9.006;2024-03-22T05:42:18;6.68;;;3.45;;
83121;SDS011;73002;47.238;9.006;2024-03-22T05:44:44;4.50;;;3.33;;
83121;SDS011;73002;47.238;9.006;2024-03-22T05:47:11;3.17;;;2.80;;
83121;SDS011;73002;47.238;9.006;2024-03-22T05:49:37;5.53;;;3.45;;
83121;SDS011;73002;47.238;9.006;2024-03-22T05:52:02;5.10;;;2.97;;
83121;SDS011;73002;47.238;9.006;2024-03-22T05:54:28;5.30;;;3.10;;
83121;SDS011;73002;47.238;9.006;2024-03-22T05:56:53;5.15;;;3.25;;
83121;SDS011;73002;47.238;9.006;2024-03-22T05:59:19;4.47;;;3.00;;
83121;SDS011;73002;47.238;9.006;2024-03-22T06:01:45;4.53;;;2.90;;
83121;SDS011;73002;47.238;9.006;2024-03-22T06:04:10;4.13;;;2.85;;
83121;SDS011;73002;47.238;9.006;2024-03-22T06:06:36;3.47;;;2.60;;
83121;SDS011;73002;47.238;9.006;2024-03-22T06:09:01;3.08;;;2.78;;
83121;SDS011;73002;47.238;9.006;2024-03-22T06:11:34;3.75;;;3.03;;
83121;SDS011;73002;47.238;9.006;2024-03-22T06:14:04;3.92;;;3.20;;
83121;SDS011;73002;47.238;9.006;2024-03-22T06:16:30;5.07;;;3.05;;
83121;SDS011;73002;47.238;9.006;2024-03-22T06:18:55;4.15;;;3.15;;
83121;SDS011;73002;47.238;9.006;2024-03-22T06:21:21;5.63;;;3.30;;
83121;SDS011;73002;47.238;9.006;2024-03-22T06:23:49;4.95;;;3.05;;
83121;SDS011;73002;47.238;9.006;2024-03-22T06:26:15;3.10;;;2.80;;
83121;SDS011;73002;47.238;9.006;2024-03-22T06:28:41;3.53;;;2.60;;
83121;SDS011;73002;47.238;9.006;2024-03-22T06:31:06;4.43;;;3.13;;
83121;SDS011;73002;47.238;9.006;2024-03-22T06:33:32;4.07;;;2.78;;
83121;SDS011;73002;47.238;9.006;2024-03-22T06:35:58;4.22;;;2.38;;
83121;SDS011;73002;47.238;9.006;2024-03-22T06:38:23;3.72;;;2.58;;
83121;SDS011;73002;47.238;9.006;2024-03-22T06:40:49;5.63;;;2.90;;
83121;SDS011;73002;47.238;9.006;2024-03-22T06:43:14;4.82;;;2.47;;
83121;SDS011;73002;47.238;9.006;2024-03-22T06:45:40;4.05;;;2.60;;
83121;SDS011;73002;47.238;9.006;2024-03-22T06:48:05;2.80;;;2.35;;
83121;SDS011;73002;47.238;9.006;2024-03-22T06:50:31;2.75;;;2.42;;
83121;SDS011;73002;47.238;9.006;2024-03-22T06:52:58;5.10;;;2.58;;
83121;SDS011;73002;47.238;9.006;2024-03-22T06:55:24;3.85;;;2.55;;
83121;SDS011;73002;47.238;9.006;2024-03-22T06:57:49;2.97;;;2.65;;
83121;SDS011;73002;47.238;9.006;2024-03-22T07:00:16;4.57;;;2.90;;
83121;SDS011;73002;47.238;9.006;2024-03-22T07:02:44;4.35;;;2.90;;
83121;SDS011;73002;47.238;9.006;2024-03-22T07:05:09;5.78;;;2.42;;
83121;SDS011;73002;47.238;9.006;2024-03-22T07:07:36;3.97;;;2.83;;
83121;SDS011;73002;47.238;9.006;2024-03-22T07:10:02;4.15;;;2.40;;
83121;SDS011;73002;47.238;9.006;2024-03-22T07:12:28;3.97;;;2.50;;
83121;SDS011;73002;47.238;9.006;2024-03-22T07:14:55;2.60;;;2.40;;
83121;SDS011;73002;47.238;9.006;2024-03-22T07:17:24;3.03;;;2.50;;
83121;SDS011;73002;47.238;9.006;2024-03-22T07:19:50;3.85;;;2.70;;
83121;SDS011;73002;47.238;9.006;2024-03-22T07:22:16;4.88;;;3.10;;
83121;SDS011;73002;47.238;9.006;2024-03-22T07:24:42;5.50;;;3.30;;
83121;SDS011;73002;47.238;9.006;2024-03-22T07:27:08;5.85;;;3.20;;
83121;SDS011;73002;47.238;9.006;2024-03-22T07:29:33;6.60;;;3.45;;
83121;SDS011;73002;47.238;9.006;2024-03-22T07:31:59;3.83;;;3.33;;
83121;SDS011;73002;47.238;9.006;2024-03-22T07:34:24;4.63;;;3.10;;
83121;SDS011;73002;47.238;9.006;2024-03-22T07:36:49;4.43;;;3.03;;
83121;SDS011;73002;47.238;9.006;2024-03-22T07:39:15;5.82;;;3.08;;
83121;SDS011;73002;47.238;9.006;2024-03-22T07:41:40;3.13;;;2.67;;
83121;SDS011;73002;47.238;9.006;2024-03-22T07:44:06;2.55;;;2.35;;
83121;SDS011;73002;47.238;9.006;2024-03-22T07:46:32;4.55;;;2.47;;
83121;SDS011;73002;47.238;9.006;2024-03-22T07:49:01;4.80;;;2.28;;
83121;SDS011;73002;47.238;9.006;2024-03-22T07:51:29;3.28;;;2.40;;
83121;SDS011;73002;47.238;9.006;2024-03-22T07:53:54;4.10;;;2.30;;
83121;SDS011;73002;47.238;9.006;2024-03-22T07:56:20;4.70;;;2.38;;
83121;SDS011;73002;47.238;9.006;2024-03-22T07:58:48;4.10;;;2.15;;
83121;SDS011;73002;47.238;9.006;2024-03-22T08:01:13;4.80;;;2.05;;
83121;SDS011;73002;47.238;9.006;2024-03-22T08:03:39;4.28;;;1.90;;
83121;SDS011;73002;47.238;9.006;2024-03-22T08:06:06;3.03;;;1.80;;
83121;SDS011;73002;47.238;9.006;2024-03-22T08:08:31;5.32;;;1.83;;
83121;SDS011;73002;47.238;9.006;2024-03-22T08:10:56;3.72;;;1.83;;
83121;SDS011;73002;47.238;9.006;2024-03-22T08:13:22;3.83;;;1.92;;
83121;SDS011;73002;47.238;9.006;2024-03-22T08:15:47;2.50;;;1.90;;
83121;SDS011;73002;47.238;9.006;2024-03-22T08:18:13;2.88;;;1.88;;
83121;SDS011;73002;47.238;9.006;2024-03-22T08:20:38;2.00;;;1.60;;
83121;SDS011;73002;47.238;9.006;2024-03-22T08:23:04;2.40;;;1.73;;
83121;SDS011;73002;47.238;9.006;2024-03-22T08:25:30;3.00;;;1.90;;
83121;SDS011;73002;47.238;9.006;2024-03-22T08:27:56;3.15;;;1.73;;
83121;SDS011;73002;47.238;9.006;2024-03-22T08:30:23;2.63;;;1.60;;
83121;SDS011;73002;47.238;9.006;2024-03-22T08:32:50;1.60;;;1.50;;
83121;SDS011;73002;47.238;9.006;2024-03-22T08:35:17;2.78;;;1.80;;
83121;SDS011;73002;47.238;9.006;2024-03-22T08:37:43;2.40;;;1.60;;
83121;SDS011;73002;47.238;9.006;2024-03-22T08:40:08;3.15;;;1.80;;
83121;SDS011;73002;47.238;9.006;2024-03-22T08:42:35;2.67;;;1.58;;
83121;SDS011;73002;47.238;9.006;2024-03-22T08:45:01;3.25;;;1.70;;
83121;SDS011;73002;47.238;9.006;2024-03-22T08:47:26;2.70;;;1.77;;
83121;SDS011;73002;47.238;9.006;2024-03-22T08:49:51;2.95;;;1.60;;
83121;SDS011;73002;47.238;9.006;2024-03-22T08:52:17;3.08;;;1.80;;
83121;SDS011;73002;47.238;9.006;2024-03-22T08:54:42;2.45;;;1.75;;
83121;SDS011;73002;47.238;9.006;2024-03-22T08:57:08;2.67;;;1.63;;
83121;SDS011;73002;47.238;9.006;2024-03-22T08:59:34;2.10;;;1.70;;
83121;SDS011;73002;47.238;9.006;2024-03-22T09:02:00;1.73;;;1.42;;
83121;SDS011;73002;47.238;9.006;2024-03-22T09:04:25;2.95;;;1.50;;
83121;SDS011;73002;47.238;9.006;2024-03-22T09:06:51;2.15;;;1.60;;
83121;SDS011;73002;47.238;9.006;2024-03-22T09:09:16;2.35;;;1.63;;
83121;SDS011;73002;47.238;9.006;2024-03-22T09:11:42;3.05;;;1.85;;
83121;SDS011;73002;47.238;9.006;2024-03-22T09:14:07;4.20;;;1.63;;
83121;SDS011;73002;47.238;9.006;2024-03-22T09:16:33;2.58;;;1.77;;
83121;SDS011;73002;47.238;9.006;2024-03-22T09:18:58;2.85;;;1.70;;
83121;SDS011;73002;47.238;9.006;2024-03-22T09:21:24;2.55;;;1.63;;
83121;SDS011;73002;47.238;9.006;2024-03-22T09:23:50;2.92;;;1.70;;
83121;SDS011;73002;47.238;9.006;2024-03-22T09:26:16;3.92;;;1.50;;
83121;SDS011;73002;47.238;9.006;2024-03-22T09:28:41;3.15;;;1.60;;
83121;SDS011;73002;47.238;9.006;2024-03-22T09:31:07;4.43;;;1.77;;
83121;SDS011;73002;47.238;9.006;2024-03-22T09:33:33;3.42;;;1.60;;
83121;SDS011;73002;47.238;9.006;2024-03-22T09:36:02;2.70;;;1.50;;
83121;SDS011;73002;47.238;9.006;2024-03-22T09:38:30;2.80;;;1.80;;
83121;SDS011;73002;47.238;9.006;2024-03-22T09:40:56;2.90;;;1.60;;
83121;SDS011;73002;47.238;9.006;2024-03-22T10:27:58;3.05;;;1.50;;
83121;SDS011;73002;47.238;9.006;2024-03-22T10:30:24;3.67;;;1.98;;
83121;SDS011;73002;47.238;9.006;2024-03-22T10:32:50;2.45;;;1.80;;
83121;SDS011;73002;47.238;9.006;2024-03-22T10:35:16;2.65;;;1.80;;
83121;SDS011;73002;47.238;9.006;2024-03-22T10:37:44;5.20;;;1.92;;
83121;SDS011;73002;47.238;9.006;2024-03-22T10:40:10;3.70;;;1.90;;
83121;SDS011;73002;47.238;9.006;2024-03-22T10:42:37;2.05;;;1.65;;
83121;SDS011;73002;47.238;9.006;2024-03-22T10:45:09;2.63;;;1.63;;
83121;SDS011;73002;47.238;9.006;2024-03-22T10:50:06;3.70;;;1.80;;
83121;SDS011;73002;47.238;9.006;2024-03-22T10:52:34;3.42;;;1.90;;
83121;SDS011;73002;47.238;9.006;2024-03-22T10:57:34;2.92;;;1.73;;
83121;SDS011;73002;47.238;9.006;2024-03-22T11:00:04;3.43;;;1.87;;
83121;SDS011;73002;47.238;9.006;2024-03-22T11:02:35;2.38;;;1.73;;
83121;SDS011;73002;47.238;9.006;2024-03-22T11:07:58;2.72;;;1.50;;
83121;SDS011;73002;47.238;9.006;2024-03-22T11:10:33;2.50;;;1.67;;
83121;SDS011;73002;47.238;9.006;2024-03-22T11:13:01;1.83;;;1.40;;
83121;SDS011;73002;47.238;9.006;2024-03-22T11:15:31;2.65;;;1.65;;
83121;SDS011;73002;47.238;9.006;2024-03-22T11:17:56;2.03;;;1.50;;
83121;SDS011;73002;47.238;9.006;2024-03-22T11:20:22;2.28;;;1.45;;
83121;SDS011;73002;47.238;9.006;2024-03-22T11:22:48;1.65;;;1.50;;
83121;SDS011;73002;47.238;9.006;2024-03-22T11:25:18;2.17;;;1.40;;
